sensor_id;sensor_type;location;lat;lon;timestamp;P1;durP1;ratioP1;P2;durP2;ratioP2
828;SDS011;396;52.558;13.188;2023-07-29T00:00:06;6.23;;;2.03;;
828;SDS011;396;52.558;13.188;2023-07-29T00:02:34;6.17;;;1.30;;
828;SDS011;396;52.558;13.188;2023-07-29T00:05:00;5.83;;;1.47;;
828;SDS011;396;52.558;13.188;2023-07-29T00:07:29;5.73;;;1.50;;
828;SDS011;396;52.558;13.188;2023-07-29T00:09:55;5.63;;;1.67;;
828;SDS011;396;52.558;13.188;2023-07-29T00:12:22;6.87;;;2.00;;
828;SDS011;396;52.558;13.188;2023-07-29T00:14:48;5.43;;;1.77;;
828;SDS011;396;52.558;13.188;2023-07-29T00:17:15;7.33;;;1.93;;
828;SDS011;396;52.558;13.188;2023-07-29T00:19:41;6.17;;;1.60;;
828;SDS011;396;52.558;13.188;2023-07-29T00:22:08;6.77;;;1.90;;
828;SDS011;396;52.558;13.188;2023-07-29T00:24:36;6.00;;;1.80;;
828;SDS011;396;52.558;13.188;2023-07-29T00:27:03;7.27;;;2.03;;
828;SDS011;396;52.558;13.188;2023-07-29T00:29:29;6.30;;;2.00;;
828;SDS011;396;52.558;13.188;2023-07-29T00:31:56;5.23;;;1.33;;
828;SDS011;396;52.558;13.188;2023-07-29T00:34:22;6.00;;;1.20;;
828;SDS011;396;52.558;13.188;2023-07-29T00:36:50;5.23;;;1.27;;
828;SDS011;396;52.558;13.188;2023-07-29T00:39:17;5.73;;;1.50;;
828;SDS011;396;52.558;13.188;2023-07-29T00:41:45;6.00;;;1.80;;
828;SDS011;396;52.558;13.188;2023-07-29T00:44:12;5.80;;;1.70;;
828;SDS011;396;52.558;13.188;2023-07-29T00:46:38;7.93;;;2.20;;
828;SDS011;396;52.558;13.188;2023-07-29T00:49:07;6.17;;;2.10;;
828;SDS011;396;52.558;13.188;2023-07-29T00:51:33;6.33;;;1.90;;
828;SDS011;396;52.558;13.188;2023-07-29T00:54:00;6.23;;;1.70;;
828;SDS011;396;52.558;13.188;2023-07-29T00:56:27;5.40;;;1.27;;
828;SDS011;396;52.558;13.188;2023-07-29T00:58:55;6.50;;;2.10;;
828;SDS011;396;52.558;13.188;2023-07-29T01:01:25;6.90;;;1.67;;
828;SDS011;396;52.558;13.188;2023-07-29T01:03:52;6.60;;;1.70;;
828;SDS011;396;52.558;13.188;2023-07-29T01:06:26;6.43;;;1.57;;
828;SDS011;396;52.558;13.188;2023-07-29T01:08:58;5.33;;;1.53;;
828;SDS011;396;52.558;13.188;2023-07-29T01:11:31;6.10;;;1.70;;
828;SDS011;396;52.558;13.188;2023-07-29T01:14:09;5.53;;;1.60;;
828;SDS011;396;52.558;13.188;2023-07-29T01:16:45;6.03;;;1.97;;
828;SDS011;396;52.558;13.188;2023-07-29T01:19:20;6.00;;;1.60;;
828;SDS011;396;52.558;13.188;2023-07-29T01:21:57;6.67;;;2.03;;
828;SDS011;396;52.558;13.188;2023-07-29T01:24:26;6.13;;;1.93;;
828;SDS011;396;52.558;13.188;2023-07-29T01:26:53;6.40;;;2.30;;
828;SDS011;396;52.558;13.188;2023-07-29T01:29:19;6.07;;;1.60;;
828;SDS011;396;52.558;13.188;2023-07-29T01:31:47;6.50;;;1.90;;
828;SDS011;396;52.558;13.188;2023-07-29T01:34:23;5.67;;;1.90;;
828;SDS011;396;52.558;13.188;2023-07-29T01:36:55;6.27;;;1.47;;
828;SDS011;396;52.558;13.188;2023-07-29T01:39:28;5.80;;;1.53;;
828;SDS011;396;52.558;13.188;2023-07-29T01:41:58;8.67;;;2.47;;
828;SDS011;396;52.558;13.188;2023-07-29T01:44:25;5.67;;;1.73;;
828;SDS011;396;52.558;13.188;2023-07-29T01:46:52;5.70;;;1.50;;
828;SDS011;396;52.558;13.188;2023-07-29T01:49:21;6.17;;;2.07;;
828;SDS011;396;52.558;13.188;2023-07-29T01:51:48;6.40;;;1.70;;
828;SDS011;396;52.558;13.188;2023-07-29T01:54:14;5.60;;;1.70;;
828;SDS011;396;52.558;13.188;2023-07-29T01:56:42;6.93;;;1.97;;
828;SDS011;396;52.558;13.188;2023-07-29T01:59:09;6.40;;;1.70;;
828;SDS011;396;52.558;13.188;2023-07-29T02:01:35;5.50;;;1.70;;
828;SDS011;396;52.558;13.188;2023-07-29T02:04:02;5.57;;;1.80;;
828;SDS011;396;52.558;13.188;2023-07-29T02:06:29;5.70;;;1.40;;
828;SDS011;396;52.558;13.188;2023-07-29T02:08:55;6.03;;;1.97;;
828;SDS011;396;52.558;13.188;2023-07-29T02:11:22;7.77;;;2.20;;
828;SDS011;396;52.558;13.188;2023-07-29T02:13:54;5.27;;;1.40;;
828;SDS011;396;52.558;13.188;2023-07-29T02:16:21;5.80;;;1.63;;
828;SDS011;396;52.558;13.188;2023-07-29T02:18:48;6.57;;;2.20;;
828;SDS011;396;52.558;13.188;2023-07-29T02:21:15;6.90;;;1.93;;
828;SDS011;396;52.558;13.188;2023-07-29T02:23:42;6.33;;;1.87;;
828;SDS011;396;52.558;13.188;2023-07-29T02:26:08;6.97;;;2.07;;
828;SDS011;396;52.558;13.188;2023-07-29T02:28:35;7.97;;;2.03;;
828;SDS011;396;52.558;13.188;2023-07-29T02:31:11;7.10;;;1.73;;
828;SDS011;396;52.558;13.188;2023-07-29T02:33:40;6.70;;;2.40;;
828;SDS011;396;52.558;13.188;2023-07-29T02:36:07;7.90;;;2.60;;
828;SDS011;396;52.558;13.188;2023-07-29T02:38:33;6.80;;;2.10;;
828;SDS011;396;52.558;13.188;2023-07-29T02:41:00;6.53;;;1.80;;
828;SDS011;396;52.558;13.188;2023-07-29T02:43:27;6.70;;;2.10;;
828;SDS011;396;52.558;13.188;2023-07-29T02:45:53;6.30;;;1.93;;
828;SDS011;396;52.558;13.188;2023-07-29T02:48:21;6.77;;;2.27;;
828;SDS011;396;52.558;13.188;2023-07-29T02:50:48;6.40;;;2.20;;
828;SDS011;396;52.558;13.188;2023-07-29T02:53:14;6.57;;;1.90;;
828;SDS011;396;52.558;13.188;2023-07-29T02:55:41;6.80;;;1.83;;
828;SDS011;396;52.558;13.188;2023-07-29T02:58:08;7.50;;;1.73;;
828;SDS011;396;52.558;13.188;2023-07-29T03:00:35;6.57;;;2.10;;
828;SDS011;396;52.558;13.188;2023-07-29T03:03:01;7.53;;;2.63;;
828;SDS011;396;52.558;13.188;2023-07-29T03:05:29;6.03;;;1.83;;
828;SDS011;396;52.558;13.188;2023-07-29T03:07:57;8.80;;;2.23;;
828;SDS011;396;52.558;13.188;2023-07-29T03:10:23;5.70;;;1.67;;
828;SDS011;396;52.558;13.188;2023-07-29T03:12:50;6.93;;;2.00;;
828;SDS011;396;52.558;13.188;2023-07-29T03:15:17;6.57;;;1.77;;
828;SDS011;396;52.558;13.188;2023-07-29T03:17:43;5.50;;;1.53;;
828;SDS011;396;52.558;13.188;2023-07-29T03:20:10;5.83;;;1.80;;
828;SDS011;396;52.558;13.188;2023-07-29T03:22:38;8.97;;;2.40;;
828;SDS011;396;52.558;13.188;2023-07-29T03:25:05;6.20;;;1.77;;
828;SDS011;396;52.558;13.188;2023-07-29T03:27:32;6.47;;;2.17;;
828;SDS011;396;52.558;13.188;2023-07-29T03:29:58;7.10;;;2.23;;
828;SDS011;396;52.558;13.188;2023-07-29T03:32:25;6.90;;;2.20;;
828;SDS011;396;52.558;13.188;2023-07-29T03:34:52;6.63;;;1.97;;
828;SDS011;396;52.558;13.188;2023-07-29T03:37:19;7.60;;;1.77;;
828;SDS011;396;52.558;13.188;2023-07-29T03:39:47;6.90;;;2.33;;
828;SDS011;396;52.558;13.188;2023-07-29T03:42:14;7.00;;;2.30;;
828;SDS011;396;52.558;13.188;2023-07-29T03:44:41;6.90;;;1.80;;
828;SDS011;396;52.558;13.188;2023-07-29T03:47:07;6.47;;;2.23;;
828;SDS011;396;52.558;13.188;2023-07-29T03:49:34;6.00;;;2.07;;
828;SDS011;396;52.558;13.188;2023-07-29T03:52:00;6.30;;;1.90;;
828;SDS011;396;52.558;13.188;2023-07-29T03:54:27;7.80;;;2.13;;
828;SDS011;396;52.558;13.188;2023-07-29T03:56:55;6.47;;;1.90;;
828;SDS011;396;52.558;13.188;2023-07-29T03:59:21;6.33;;;2.40;;
828;SDS011;396;52.558;13.188;2023-07-29T04:01:48;6.50;;;1.97;;
828;SDS011;396;52.558;13.188;2023-07-29T04:04:15;7.70;;;2.40;;
828;SDS011;396;52.558;13.188;2023-07-29T04:06:41;7.50;;;2.60;;
828;SDS011;396;52.558;13.188;2023-07-29T04:09:08;6.03;;;1.93;;
828;SDS011;396;52.558;13.188;2023-07-29T04:11:35;5.80;;;1.70;;
828;SDS011;396;52.558;13.188;2023-07-29T04:14:03;6.90;;;2.63;;
828;SDS011;396;52.558;13.188;2023-07-29T04:16:29;6.83;;;2.10;;
828;SDS011;396;52.558;13.188;2023-07-29T04:18:56;7.90;;;2.70;;
828;SDS011;396;52.558;13.188;2023-07-29T04:21:23;7.53;;;2.03;;
828;SDS011;396;52.558;13.188;2023-07-29T04:23:49;7.80;;;2.30;;
828;SDS011;396;52.558;13.188;2023-07-29T04:26:16;6.10;;;2.27;;
828;SDS011;396;52.558;13.188;2023-07-29T04:28:42;6.23;;;2.00;;
828;SDS011;396;52.558;13.188;2023-07-29T04:31:10;6.07;;;2.20;;
828;SDS011;396;52.558;13.188;2023-07-29T04:33:37;7.37;;;2.20;;
828;SDS011;396;52.558;13.188;2023-07-29T04:36:04;6.30;;;2.43;;
828;SDS011;396;52.558;13.188;2023-07-29T04:38:31;5.67;;;1.87;;
828;SDS011;396;52.558;13.188;2023-07-29T04:40:59;7.30;;;2.50;;
828;SDS011;396;52.558;13.188;2023-07-29T04:43:27;6.33;;;2.17;;
828;SDS011;396;52.558;13.188;2023-07-29T04:45:54;6.30;;;2.10;;
828;SDS011;396;52.558;13.188;2023-07-29T04:48:22;6.50;;;2.37;;
828;SDS011;396;52.558;13.188;2023-07-29T04:50:49;7.10;;;2.60;;
828;SDS011;396;52.558;13.188;2023-07-29T04:53:15;6.53;;;1.80;;
828;SDS011;396;52.558;13.188;2023-07-29T04:55:42;6.70;;;2.37;;
828;SDS011;396;52.558;13.188;2023-07-29T04:58:08;9.40;;;2.90;;
828;SDS011;396;52.558;13.188;2023-07-29T05:00:35;9.13;;;2.57;;
828;SDS011;396;52.558;13.188;2023-07-29T05:03:02;9.10;;;2.90;;
828;SDS011;396;52.558;13.188;2023-07-29T05:05:30;7.37;;;2.60;;
828;SDS011;396;52.558;13.188;2023-07-29T05:07:56;7.60;;;2.60;;
828;SDS011;396;52.558;13.188;2023-07-29T05:10:23;8.20;;;3.00;;
828;SDS011;396;52.558;13.188;2023-07-29T05:12:50;6.87;;;2.60;;
828;SDS011;396;52.558;13.188;2023-07-29T05:15:16;7.53;;;2.73;;
828;SDS011;396;52.558;13.188;2023-07-29T05:17:43;7.57;;;2.37;;
828;SDS011;396;52.558;13.188;2023-07-29T05:20:10;9.63;;;2.73;;
828;SDS011;396;52.558;13.188;2023-07-29T05:22:39;10.53;;;4.20;;
828;SDS011;396;52.558;13.188;2023-07-29T05:25:06;11.67;;;3.33;;
828;SDS011;396;52.558;13.188;2023-07-29T05:27:33;10.93;;;3.70;;
828;SDS011;396;52.558;13.188;2023-07-29T05:30:00;7.83;;;3.40;;
828;SDS011;396;52.558;13.188;2023-07-29T05:32:26;7.50;;;3.20;;
828;SDS011;396;52.558;13.188;2023-07-29T05:34:53;8.17;;;3.30;;
828;SDS011;396;52.558;13.188;2023-07-29T05:37:19;8.37;;;3.07;;
828;SDS011;396;52.558;13.188;2023-07-29T05:39:47;9.17;;;3.37;;
828;SDS011;396;52.558;13.188;2023-07-29T05:42:14;8.17;;;3.37;;
828;SDS011;396;52.558;13.188;2023-07-29T05:44:41;8.83;;;2.60;;
828;SDS011;396;52.558;13.188;2023-07-29T05:47:07;9.60;;;3.17;;
828;SDS011;396;52.558;13.188;2023-07-29T05:49:34;7.47;;;2.73;;
828;SDS011;396;52.558;13.188;2023-07-29T05:52:01;10.10;;;2.60;;
828;SDS011;396;52.558;13.188;2023-07-29T05:54:27;7.50;;;3.10;;
828;SDS011;396;52.558;13.188;2023-07-29T05:56:55;8.00;;;3.53;;
828;SDS011;396;52.558;13.188;2023-07-29T05:59:22;10.07;;;3.97;;
828;SDS011;396;52.558;13.188;2023-07-29T06:01:48;7.20;;;2.80;;
828;SDS011;396;52.558;13.188;2023-07-29T06:04:15;6.17;;;2.00;;
828;SDS011;396;52.558;13.188;2023-07-29T06:06:42;7.83;;;2.90;;
828;SDS011;396;52.558;13.188;2023-07-29T06:09:08;9.00;;;3.50;;
828;SDS011;396;52.558;13.188;2023-07-29T06:11:35;8.00;;;3.10;;
828;SDS011;396;52.558;13.188;2023-07-29T06:14:03;8.97;;;3.27;;
828;SDS011;396;52.558;13.188;2023-07-29T06:16:30;7.10;;;2.77;;
828;SDS011;396;52.558;13.188;2023-07-29T06:18:56;8.73;;;3.63;;
828;SDS011;396;52.558;13.188;2023-07-29T06:21:23;8.07;;;3.07;;
828;SDS011;396;52.558;13.188;2023-07-29T06:23:50;8.37;;;2.90;;
828;SDS011;396;52.558;13.188;2023-07-29T06:26:16;6.67;;;2.77;;
828;SDS011;396;52.558;13.188;2023-07-29T06:28:43;7.70;;;3.10;;
828;SDS011;396;52.558;13.188;2023-07-29T06:31:11;10.47;;;3.60;;
828;SDS011;396;52.558;13.188;2023-07-29T06:33:37;8.40;;;3.13;;
828;SDS011;396;52.558;13.188;2023-07-29T06:36:04;6.30;;;2.30;;
828;SDS011;396;52.558;13.188;2023-07-29T06:38:31;9.23;;;2.90;;
828;SDS011;396;52.558;13.188;2023-07-29T06:40:57;7.27;;;2.73;;
828;SDS011;396;52.558;13.188;2023-07-29T06:43:24;7.83;;;3.37;;
828;SDS011;396;52.558;13.188;2023-07-29T06:45:51;8.60;;;2.47;;
828;SDS011;396;52.558;13.188;2023-07-29T06:48:19;8.30;;;3.17;;
828;SDS011;396;52.558;13.188;2023-07-29T06:50:45;15.33;;;3.57;;
828;SDS011;396;52.558;13.188;2023-07-29T06:53:12;7.67;;;3.67;;
828;SDS011;396;52.558;13.188;2023-07-29T06:55:39;7.03;;;2.63;;
828;SDS011;396;52.558;13.188;2023-07-29T06:58:06;6.93;;;2.47;;
828;SDS011;396;52.558;13.188;2023-07-29T07:00:32;8.20;;;3.00;;
828;SDS011;396;52.558;13.188;2023-07-29T07:02:59;7.30;;;2.80;;
828;SDS011;396;52.558;13.188;2023-07-29T07:05:27;6.70;;;2.13;;
828;SDS011;396;52.558;13.188;2023-07-29T07:07:53;7.07;;;3.00;;
828;SDS011;396;52.558;13.188;2023-07-29T07:10:20;6.70;;;2.37;;
828;SDS011;396;52.558;13.188;2023-07-29T07:12:47;6.03;;;2.30;;
828;SDS011;396;52.558;13.188;2023-07-29T07:15:13;6.60;;;3.00;;
828;SDS011;396;52.558;13.188;2023-07-29T07:17:40;6.63;;;2.10;;
828;SDS011;396;52.558;13.188;2023-07-29T07:20:07;8.07;;;3.33;;
828;SDS011;396;52.558;13.188;2023-07-29T07:22:35;7.13;;;2.63;;
828;SDS011;396;52.558;13.188;2023-07-29T07:25:02;8.70;;;2.67;;
828;SDS011;396;52.558;13.188;2023-07-29T07:27:29;6.20;;;2.20;;
828;SDS011;396;52.558;13.188;2023-07-29T07:29:55;7.67;;;3.17;;
828;SDS011;396;52.558;13.188;2023-07-29T07:32:22;6.43;;;2.43;;
828;SDS011;396;52.558;13.188;2023-07-29T07:34:48;5.57;;;2.03;;
828;SDS011;396;52.558;13.188;2023-07-29T07:37:15;8.03;;;2.40;;
828;SDS011;396;52.558;13.188;2023-07-29T07:39:43;6.70;;;2.10;;
828;SDS011;396;52.558;13.188;2023-07-29T07:42:10;6.50;;;2.43;;
828;SDS011;396;52.558;13.188;2023-07-29T07:44:36;7.20;;;2.57;;
828;SDS011;396;52.558;13.188;2023-07-29T07:47:03;6.43;;;2.10;;
828;SDS011;396;52.558;13.188;2023-07-29T07:49:30;7.83;;;2.10;;
828;SDS011;396;52.558;13.188;2023-07-29T07:51:57;6.50;;;2.07;;
828;SDS011;396;52.558;13.188;2023-07-29T07:54:23;6.37;;;2.43;;
828;SDS011;396;52.558;13.188;2023-07-29T07:56:51;6.47;;;2.33;;
828;SDS011;396;52.558;13.188;2023-07-29T07:59:18;8.83;;;2.43;;
828;SDS011;396;52.558;13.188;2023-07-29T08:01:45;6.07;;;2.10;;
828;SDS011;396;52.558;13.188;2023-07-29T08:04:12;5.50;;;1.50;;
828;SDS011;396;52.558;13.188;2023-07-29T08:06:38;7.03;;;2.20;;
828;SDS011;396;52.558;13.188;2023-07-29T08:09:05;6.53;;;1.87;;
828;SDS011;396;52.558;13.188;2023-07-29T08:11:32;5.90;;;1.80;;
828;SDS011;396;52.558;13.188;2023-07-29T08:13:59;5.50;;;1.63;;
828;SDS011;396;52.558;13.188;2023-07-29T08:16:26;5.30;;;1.67;;
828;SDS011;396;52.558;13.188;2023-07-29T08:18:53;5.90;;;2.00;;
828;SDS011;396;52.558;13.188;2023-07-29T08:21:19;6.97;;;2.07;;
828;SDS011;396;52.558;13.188;2023-07-29T08:23:46;5.70;;;1.47;;
828;SDS011;396;52.558;13.188;2023-07-29T08:26:12;6.90;;;2.20;;
828;SDS011;396;52.558;13.188;2023-07-29T08:28:39;6.60;;;2.10;;
828;SDS011;396;52.558;13.188;2023-07-29T08:31:07;6.40;;;2.00;;
828;SDS011;396;52.558;13.188;2023-07-29T08:33:34;6.63;;;1.70;;
828;SDS011;396;52.558;13.188;2023-07-29T08:36:00;6.50;;;1.70;;
828;SDS011;396;52.558;13.188;2023-07-29T08:38:27;5.70;;;1.90;;
828;SDS011;396;52.558;13.188;2023-07-29T08:40:57;6.30;;;2.00;;
828;SDS011;396;52.558;13.188;2023-07-29T08:43:31;5.03;;;1.23;;
828;SDS011;396;52.558;13.188;2023-07-29T08:45:59;6.03;;;2.17;;
828;SDS011;396;52.558;13.188;2023-07-29T08:48:32;6.80;;;2.20;;
828;SDS011;396;52.558;13.188;2023-07-29T08:51:01;6.63;;;1.90;;
828;SDS011;396;52.558;13.188;2023-07-29T08:53:30;5.83;;;1.70;;
828;SDS011;396;52.558;13.188;2023-07-29T08:55:57;5.87;;;1.70;;
828;SDS011;396;52.558;13.188;2023-07-29T08:58:24;5.63;;;1.63;;
828;SDS011;396;52.558;13.188;2023-07-29T09:00:51;6.03;;;2.27;;
828;SDS011;396;52.558;13.188;2023-07-29T09:03:19;7.43;;;1.50;;
828;SDS011;396;52.558;13.188;2023-07-29T09:05:47;5.50;;;1.70;;
828;SDS011;396;52.558;13.188;2023-07-29T09:08:13;6.27;;;2.00;;
828;SDS011;396;52.558;13.188;2023-07-29T09:10:40;5.67;;;1.80;;
828;SDS011;396;52.558;13.188;2023-07-29T09:13:07;5.70;;;1.93;;
828;SDS011;396;52.558;13.188;2023-07-29T09:15:34;6.40;;;1.80;;
828;SDS011;396;52.558;13.188;2023-07-29T09:18:08;5.90;;;1.60;;
828;SDS011;396;52.558;13.188;2023-07-29T09:20:35;6.03;;;1.50;;
828;SDS011;396;52.558;13.188;2023-07-29T09:23:06;5.90;;;1.60;;
828;SDS011;396;52.558;13.188;2023-07-29T09:25:34;5.70;;;1.60;;
828;SDS011;396;52.558;13.188;2023-07-29T09:28:00;5.10;;;1.50;;
828;SDS011;396;52.558;13.188;2023-07-29T09:30:33;5.20;;;1.30;;
828;SDS011;396;52.558;13.188;2023-07-29T09:32:59;6.13;;;1.80;;
828;SDS011;396;52.558;13.188;2023-07-29T09:35:27;5.30;;;1.50;;
828;SDS011;396;52.558;13.188;2023-07-29T09:37:54;5.17;;;1.37;;
828;SDS011;396;52.558;13.188;2023-07-29T09:40:22;5.47;;;1.93;;
828;SDS011;396;52.558;13.188;2023-07-29T09:42:49;5.93;;;1.80;;
828;SDS011;396;52.558;13.188;2023-07-29T09:45:20;5.23;;;1.43;;
828;SDS011;396;52.558;13.188;2023-07-29T09:47:47;5.17;;;1.40;;
828;SDS011;396;52.558;13.188;2023-07-29T09:50:15;5.80;;;1.60;;
828;SDS011;396;52.558;13.188;2023-07-29T09:52:42;5.33;;;1.93;;
828;SDS011;396;52.558;13.188;2023-07-29T09:55:10;5.10;;;1.30;;
828;SDS011;396;52.558;13.188;2023-07-29T09:57:39;7.50;;;2.27;;
828;SDS011;396;52.558;13.188;2023-07-29T10:00:06;4.70;;;1.27;;
828;SDS011;396;52.558;13.188;2023-07-29T10:02:36;5.40;;;1.20;;
828;SDS011;396;52.558;13.188;2023-07-29T10:05:04;5.20;;;1.20;;
828;SDS011;396;52.558;13.188;2023-07-29T10:07:33;5.83;;;1.60;;
828;SDS011;396;52.558;13.188;2023-07-29T10:10:01;5.17;;;1.57;;
828;SDS011;396;52.558;13.188;2023-07-29T10:12:30;4.80;;;1.10;;
828;SDS011;396;52.558;13.188;2023-07-29T10:15:00;6.07;;;1.70;;
828;SDS011;396;52.558;13.188;2023-07-29T10:17:28;5.10;;;1.00;;
828;SDS011;396;52.558;13.188;2023-07-29T10:19:56;5.50;;;1.40;;
828;SDS011;396;52.558;13.188;2023-07-29T10:22:24;6.40;;;1.70;;
828;SDS011;396;52.558;13.188;2023-07-29T10:24:54;5.53;;;1.73;;
828;SDS011;396;52.558;13.188;2023-07-29T10:27:25;4.97;;;1.40;;
828;SDS011;396;52.558;13.188;2023-07-29T10:29:55;5.13;;;1.47;;
828;SDS011;396;52.558;13.188;2023-07-29T10:32:24;5.33;;;1.60;;
828;SDS011;396;52.558;13.188;2023-07-29T10:34:52;7.40;;;1.77;;
828;SDS011;396;52.558;13.188;2023-07-29T10:37:19;5.43;;;1.40;;
828;SDS011;396;52.558;13.188;2023-07-29T10:39:53;6.07;;;1.80;;
828;SDS011;396;52.558;13.188;2023-07-29T10:42:21;5.60;;;1.53;;
828;SDS011;396;52.558;13.188;2023-07-29T10:44:49;6.20;;;1.60;;
828;SDS011;396;52.558;13.188;2023-07-29T10:47:17;5.80;;;1.67;;
828;SDS011;396;52.558;13.188;2023-07-29T10:49:46;5.20;;;1.53;;
828;SDS011;396;52.558;13.188;2023-07-29T10:52:16;6.33;;;1.30;;
828;SDS011;396;52.558;13.188;2023-07-29T10:54:53;6.20;;;2.33;;
828;SDS011;396;52.558;13.188;2023-07-29T10:57:29;6.10;;;1.70;;
828;SDS011;396;52.558;13.188;2023-07-29T10:59:58;5.63;;;1.83;;
828;SDS011;396;52.558;13.188;2023-07-29T11:02:28;7.57;;;1.80;;
828;SDS011;396;52.558;13.188;2023-07-29T11:04:58;5.60;;;1.40;;
828;SDS011;396;52.558;13.188;2023-07-29T11:07:25;7.23;;;2.03;;
828;SDS011;396;52.558;13.188;2023-07-29T11:09:53;6.83;;;2.10;;
828;SDS011;396;52.558;13.188;2023-07-29T11:12:36;5.60;;;1.40;;
828;SDS011;396;52.558;13.188;2023-07-29T11:17:55;7.20;;;1.37;;
828;SDS011;396;52.558;13.188;2023-07-29T11:20:25;6.00;;;1.50;;
828;SDS011;396;52.558;13.188;2023-07-29T11:22:53;6.50;;;1.50;;
828;SDS011;396;52.558;13.188;2023-07-29T11:25:21;6.70;;;1.63;;
828;SDS011;396;52.558;13.188;2023-07-29T11:27:49;5.27;;;1.00;;
828;SDS011;396;52.558;13.188;2023-07-29T11:30:17;6.37;;;1.50;;
828;SDS011;396;52.558;13.188;2023-07-29T11:32:44;5.47;;;1.47;;
828;SDS011;396;52.558;13.188;2023-07-29T11:35:13;6.07;;;1.70;;
828;SDS011;396;52.558;13.188;2023-07-29T11:37:43;6.07;;;1.73;;
828;SDS011;396;52.558;13.188;2023-07-29T11:40:13;6.10;;;2.23;;
828;SDS011;396;52.558;13.188;2023-07-29T11:42:41;6.77;;;1.80;;
828;SDS011;396;52.558;13.188;2023-07-29T11:45:08;5.97;;;1.43;;
828;SDS011;396;52.558;13.188;2023-07-29T11:47:36;6.53;;;1.83;;
828;SDS011;396;52.558;13.188;2023-07-29T11:50:03;5.93;;;1.63;;
828;SDS011;396;52.558;13.188;2023-07-29T11:52:31;6.43;;;1.93;;
828;SDS011;396;52.558;13.188;2023-07-29T11:55:00;6.40;;;2.10;;
828;SDS011;396;52.558;13.188;2023-07-29T11:57:28;6.10;;;2.20;;
828;SDS011;396;52.558;13.188;2023-07-29T11:59:54;5.70;;;1.57;;
828;SDS011;396;52.558;13.188;2023-07-29T12:02:21;5.57;;;1.50;;
828;SDS011;396;52.558;13.188;2023-07-29T12:04:50;6.07;;;2.10;;
828;SDS011;396;52.558;13.188;2023-07-29T12:07:18;6.27;;;2.20;;
828;SDS011;396;52.558;13.188;2023-07-29T12:09:45;6.30;;;2.40;;
828;SDS011;396;52.558;13.188;2023-07-29T12:12:14;6.23;;;1.97;;
828;SDS011;396;52.558;13.188;2023-07-29T12:14:43;7.47;;;2.90;;
828;SDS011;396;52.558;13.188;2023-07-29T12:17:11;6.30;;;2.10;;
828;SDS011;396;52.558;13.188;2023-07-29T12:19:38;6.40;;;1.77;;
828;SDS011;396;52.558;13.188;2023-07-29T12:22:07;5.80;;;1.87;;
828;SDS011;396;52.558;13.188;2023-07-29T12:24:35;5.67;;;1.70;;
828;SDS011;396;52.558;13.188;2023-07-29T12:27:03;6.37;;;1.97;;
828;SDS011;396;52.558;13.188;2023-07-29T12:29:31;7.57;;;2.57;;
828;SDS011;396;52.558;13.188;2023-07-29T12:32:05;7.30;;;2.30;;
828;SDS011;396;52.558;13.188;2023-07-29T12:34:32;8.70;;;2.30;;
828;SDS011;396;52.558;13.188;2023-07-29T12:36:59;6.13;;;1.97;;
828;SDS011;396;52.558;13.188;2023-07-29T12:39:31;6.40;;;1.93;;
828;SDS011;396;52.558;13.188;2023-07-29T12:42:00;6.13;;;2.00;;
828;SDS011;396;52.558;13.188;2023-07-29T12:44:29;6.40;;;2.17;;
828;SDS011;396;52.558;13.188;2023-07-29T12:46:58;7.03;;;1.80;;
828;SDS011;396;52.558;13.188;2023-07-29T12:49:25;6.47;;;2.60;;
828;SDS011;396;52.558;13.188;2023-07-29T12:51:53;7.33;;;2.17;;
828;SDS011;396;52.558;13.188;2023-07-29T12:54:20;7.20;;;2.10;;
828;SDS011;396;52.558;13.188;2023-07-29T12:56:46;5.47;;;1.50;;
828;SDS011;396;52.558;13.188;2023-07-29T12:59:13;5.40;;;1.43;;
828;SDS011;396;52.558;13.188;2023-07-29T13:01:40;5.70;;;1.60;;
828;SDS011;396;52.558;13.188;2023-07-29T13:04:08;5.37;;;1.27;;
828;SDS011;396;52.558;13.188;2023-07-29T13:06:35;5.50;;;1.50;;
828;SDS011;396;52.558;13.188;2023-07-29T13:09:02;5.50;;;1.30;;
828;SDS011;396;52.558;13.188;2023-07-29T13:11:30;5.03;;;1.20;;
828;SDS011;396;52.558;13.188;2023-07-29T13:13:57;5.13;;;1.33;;
828;SDS011;396;52.558;13.188;2023-07-29T13:16:25;5.40;;;1.27;;
828;SDS011;396;52.558;13.188;2023-07-29T13:18:52;4.83;;;1.00;;
828;SDS011;396;52.558;13.188;2023-07-29T13:21:20;5.10;;;1.13;;
828;SDS011;396;52.558;13.188;2023-07-29T13:23:46;5.10;;;1.13;;
828;SDS011;396;52.558;13.188;2023-07-29T13:26:13;4.60;;;1.00;;
828;SDS011;396;52.558;13.188;2023-07-29T13:28:40;4.40;;;0.77;;
828;SDS011;396;52.558;13.188;2023-07-29T13:31:06;4.40;;;0.60;;
828;SDS011;396;52.558;13.188;2023-07-29T13:33:33;4.67;;;0.80;;
828;SDS011;396;52.558;13.188;2023-07-29T13:35:59;5.73;;;1.07;;
828;SDS011;396;52.558;13.188;2023-07-29T13:38:28;4.60;;;0.90;;
828;SDS011;396;52.558;13.188;2023-07-29T13:40:55;4.80;;;0.90;;
828;SDS011;396;52.558;13.188;2023-07-29T13:43:22;8.07;;;1.03;;
828;SDS011;396;52.558;13.188;2023-07-29T13:45:49;4.50;;;0.87;;
828;SDS011;396;52.558;13.188;2023-07-29T13:48:15;4.80;;;0.90;;
828;SDS011;396;52.558;13.188;2023-07-29T13:50:42;4.70;;;0.73;;
828;SDS011;396;52.558;13.188;2023-07-29T13:53:09;4.67;;;0.90;;
828;SDS011;396;52.558;13.188;2023-07-29T13:55:37;4.77;;;0.83;;
828;SDS011;396;52.558;13.188;2023-07-29T13:58:03;5.23;;;1.03;;
828;SDS011;396;52.558;13.188;2023-07-29T14:00:30;4.40;;;0.63;;
828;SDS011;396;52.558;13.188;2023-07-29T14:02:57;4.27;;;0.70;;
828;SDS011;396;52.558;13.188;2023-07-29T14:05:23;4.60;;;0.80;;
828;SDS011;396;52.558;13.188;2023-07-29T14:07:50;4.40;;;0.70;;
828;SDS011;396;52.558;13.188;2023-07-29T14:10:16;5.07;;;1.20;;
828;SDS011;396;52.558;13.188;2023-07-29T14:12:45;4.60;;;1.00;;
828;SDS011;396;52.558;13.188;2023-07-29T14:15:11;4.80;;;1.00;;
828;SDS011;396;52.558;13.188;2023-07-29T14:17:38;4.77;;;1.00;;
828;SDS011;396;52.558;13.188;2023-07-29T14:20:05;5.07;;;0.90;;
828;SDS011;396;52.558;13.188;2023-07-29T14:22:32;4.73;;;1.00;;
828;SDS011;396;52.558;13.188;2023-07-29T14:24:59;4.50;;;0.83;;
828;SDS011;396;52.558;13.188;2023-07-29T14:27:26;5.37;;;1.10;;
828;SDS011;396;52.558;13.188;2023-07-29T14:29:54;5.57;;;1.30;;
828;SDS011;396;52.558;13.188;2023-07-29T14:32:20;5.70;;;1.10;;
828;SDS011;396;52.558;13.188;2023-07-29T14:34:47;5.00;;;0.90;;
828;SDS011;396;52.558;13.188;2023-07-29T14:37:15;5.20;;;0.90;;
828;SDS011;396;52.558;13.188;2023-07-29T14:39:41;4.73;;;0.83;;
828;SDS011;396;52.558;13.188;2023-07-29T14:42:08;4.57;;;0.97;;
828;SDS011;396;52.558;13.188;2023-07-29T14:44:35;5.37;;;1.13;;
828;SDS011;396;52.558;13.188;2023-07-29T14:47:03;4.57;;;0.93;;
828;SDS011;396;52.558;13.188;2023-07-29T14:49:29;5.20;;;1.30;;
828;SDS011;396;52.558;13.188;2023-07-29T14:51:56;4.77;;;1.00;;
828;SDS011;396;52.558;13.188;2023-07-29T14:54:23;4.90;;;1.30;;
828;SDS011;396;52.558;13.188;2023-07-29T14:56:49;5.07;;;1.30;;
828;SDS011;396;52.558;13.188;2023-07-29T14:59:16;5.10;;;1.10;;
828;SDS011;396;52.558;13.188;2023-07-29T15:01:42;5.23;;;1.27;;
828;SDS011;396;52.558;13.188;2023-07-29T15:04:10;5.00;;;1.00;;
828;SDS011;396;52.558;13.188;2023-07-29T15:06:37;5.63;;;1.10;;
828;SDS011;396;52.558;13.188;2023-07-29T15:09:04;5.50;;;1.27;;
828;SDS011;396;52.558;13.188;2023-07-29T15:11:31;5.17;;;1.23;;
828;SDS011;396;52.558;13.188;2023-07-29T15:13:58;4.80;;;1.10;;
828;SDS011;396;52.558;13.188;2023-07-29T15:16:25;4.83;;;0.87;;
828;SDS011;396;52.558;13.188;2023-07-29T15:18:51;4.63;;;0.90;;
828;SDS011;396;52.558;13.188;2023-07-29T15:21:19;5.10;;;0.90;;
828;SDS011;396;52.558;13.188;2023-07-29T15:23:46;5.17;;;0.80;;
828;SDS011;396;52.558;13.188;2023-07-29T15:26:13;5.93;;;1.00;;
828;SDS011;396;52.558;13.188;2023-07-29T15:28:39;5.03;;;0.97;;
828;SDS011;396;52.558;13.188;2023-07-29T15:31:06;4.67;;;0.60;;
828;SDS011;396;52.558;13.188;2023-07-29T15:33:33;5.53;;;0.90;;